sensor_id;sensor_type;location;lat;lon;timestamp;P1;durP1;ratioP1;P2;durP2;ratioP2
40675;SDS011;26359;48.750;9.314;2023-05-14T00:00:12;11.00;;;10.10;;
40675;SDS011;26359;48.750;9.314;2023-05-14T00:02:38;13.00;;;12.10;;
40675;SDS011;26359;48.750;9.314;2023-05-14T00:05:04;15.65;;;14.55;;
40675;SDS011;26359;48.750;9.314;2023-05-14T00:07:30;24.95;;;23.42;;
40675;SDS011;26359;48.750;9.314;2023-05-14T00:09:56;18.80;;;17.40;;
40675;SDS011;26359;48.750;9.314;2023-05-14T00:12:22;14.88;;;13.88;;
40675;SDS011;26359;48.750;9.314;2023-05-14T00:14:47;13.75;;;12.55;;
40675;SDS011;26359;48.750;9.314;2023-05-14T00:17:13;12.57;;;11.68;;
40675;SDS011;26359;48.750;9.314;2023-05-14T00:19:38;14.25;;;13.15;;
40675;SDS011;26359;48.750;9.314;2023-05-14T00:22:06;15.95;;;14.65;;
40675;SDS011;26359;48.750;9.314;2023-05-14T00:24:32;23.83;;;22.23;;
40675;SDS011;26359;48.750;9.314;2023-05-14T00:26:58;28.90;;;26.92;;
40675;SDS011;26359;48.750;9.314;2023-05-14T00:29:23;30.50;;;28.48;;
40675;SDS011;26359;48.750;9.314;2023-05-14T00:31:49;26.95;;;24.85;;
40675;SDS011;26359;48.750;9.314;2023-05-14T00:34:14;20.77;;;19.27;;
40675;SDS011;26359;48.750;9.314;2023-05-14T00:36:40;19.30;;;17.60;;
40675;SDS011;26359;48.750;9.314;2023-05-14T00:39:05;20.30;;;18.67;;
40675;SDS011;26359;48.750;9.314;2023-05-14T00:41:31;23.25;;;21.65;;
40675;SDS011;26359;48.750;9.314;2023-05-14T00:43:56;17.17;;;15.63;;
40675;SDS011;26359;48.750;9.314;2023-05-14T00:46:22;17.65;;;16.17;;
40675;SDS011;26359;48.750;9.314;2023-05-14T00:48:47;20.35;;;18.75;;
40675;SDS011;26359;48.750;9.314;2023-05-14T00:51:13;18.33;;;16.92;;
40675;SDS011;26359;48.750;9.314;2023-05-14T00:53:39;17.25;;;15.90;;
40675;SDS011;26359;48.750;9.314;2023-05-14T00:56:05;18.02;;;16.42;;
40675;SDS011;26359;48.750;9.314;2023-05-14T00:58:32;18.70;;;17.10;;
40675;SDS011;26359;48.750;9.314;2023-05-14T01:00:57;22.83;;;21.05;;
40675;SDS011;26359;48.750;9.314;2023-05-14T01:03:23;23.92;;;22.05;;
40675;SDS011;26359;48.750;9.314;2023-05-14T01:05:57;21.40;;;19.77;;
40675;SDS011;26359;48.750;9.314;2023-05-14T01:11:52;16.98;;;15.68;;
40675;SDS011;26359;48.750;9.314;2023-05-14T01:17:03;12.23;;;11.13;;
40675;SDS011;26359;48.750;9.314;2023-05-14T01:19:40;15.38;;;13.98;;
40675;SDS011;26359;48.750;9.314;2023-05-14T01:22:10;12.93;;;11.73;;
40675;SDS011;26359;48.750;9.314;2023-05-14T01:24:35;15.68;;;14.27;;
40675;SDS011;26359;48.750;9.314;2023-05-14T01:29:42;15.13;;;13.85;;
40675;SDS011;26359;48.750;9.314;2023-05-14T01:32:13;14.65;;;13.32;;
40675;SDS011;26359;48.750;9.314;2023-05-14T01:34:41;14.38;;;13.10;;
40675;SDS011;26359;48.750;9.314;2023-05-14T01:37:08;15.65;;;14.32;;
40675;SDS011;26359;48.750;9.314;2023-05-14T01:39:35;12.90;;;11.80;;
40675;SDS011;26359;48.750;9.314;2023-05-14T01:42:02;13.40;;;12.30;;
40675;SDS011;26359;48.750;9.314;2023-05-14T01:44:29;13.68;;;12.50;;
40675;SDS011;26359;48.750;9.314;2023-05-14T01:46:55;13.80;;;12.60;;
40675;SDS011;26359;48.750;9.314;2023-05-14T01:49:20;12.77;;;11.70;;
40675;SDS011;26359;48.750;9.314;2023-05-14T01:51:46;11.35;;;10.25;;
40675;SDS011;26359;48.750;9.314;2023-05-14T01:54:12;11.80;;;10.70;;
40675;SDS011;26359;48.750;9.314;2023-05-14T01:56:37;11.82;;;10.82;;
40675;SDS011;26359;48.750;9.314;2023-05-14T01:59:03;13.15;;;11.95;;
40675;SDS011;26359;48.750;9.314;2023-05-14T02:01:28;12.80;;;11.70;;
40675;SDS011;26359;48.750;9.314;2023-05-14T02:03:54;12.75;;;11.65;;
40675;SDS011;26359;48.750;9.314;2023-05-14T02:06:19;13.13;;;11.90;;
40675;SDS011;26359;48.750;9.314;2023-05-14T02:08:45;12.48;;;11.38;;
40675;SDS011;26359;48.750;9.314;2023-05-14T02:11:10;13.93;;;12.52;;
40675;SDS011;26359;48.750;9.314;2023-05-14T02:13:36;20.08;;;18.58;;
40675;SDS011;26359;48.750;9.314;2023-05-14T02:16:01;22.13;;;20.35;;
40675;SDS011;26359;48.750;9.314;2023-05-14T02:18:27;20.27;;;18.75;;
40675;SDS011;26359;48.750;9.314;2023-05-14T02:20:52;23.20;;;21.40;;
40675;SDS011;26359;48.750;9.314;2023-05-14T02:23:18;19.88;;;18.33;;
40675;SDS011;26359;48.750;9.314;2023-05-14T02:25:43;20.52;;;18.83;;
40675;SDS011;26359;48.750;9.314;2023-05-14T02:28:09;25.40;;;23.45;;
40675;SDS011;26359;48.750;9.314;2023-05-14T02:30:34;23.70;;;21.88;;
40675;SDS011;26359;48.750;9.314;2023-05-14T02:33:00;24.13;;;22.23;;
40675;SDS011;26359;48.750;9.314;2023-05-14T02:35:25;23.30;;;21.45;;
40675;SDS011;26359;48.750;9.314;2023-05-14T02:37:51;24.17;;;22.40;;
40675;SDS011;26359;48.750;9.314;2023-05-14T02:40:16;23.52;;;21.92;;
40675;SDS011;26359;48.750;9.314;2023-05-14T02:42:42;18.45;;;16.85;;
40675;SDS011;26359;48.750;9.314;2023-05-14T02:45:08;13.07;;;11.88;;
40675;SDS011;26359;48.750;9.314;2023-05-14T02:47:33;13.98;;;12.68;;
40675;SDS011;26359;48.750;9.314;2023-05-14T02:49:59;16.23;;;14.93;;
40675;SDS011;26359;48.750;9.314;2023-05-14T02:52:24;14.25;;;12.95;;
40675;SDS011;26359;48.750;9.314;2023-05-14T02:54:50;13.63;;;12.43;;
40675;SDS011;26359;48.750;9.314;2023-05-14T02:57:15;13.98;;;12.77;;
40675;SDS011;26359;48.750;9.314;2023-05-14T02:59:41;13.98;;;12.77;;
40675;SDS011;26359;48.750;9.314;2023-05-14T03:02:06;14.18;;;13.00;;
40675;SDS011;26359;48.750;9.314;2023-05-14T03:04:32;14.43;;;13.02;;
40675;SDS011;26359;48.750;9.314;2023-05-14T03:06:57;13.55;;;12.35;;
40675;SDS011;26359;48.750;9.314;2023-05-14T03:09:23;16.65;;;15.35;;
40675;SDS011;26359;48.750;9.314;2023-05-14T03:11:49;17.65;;;16.30;;
40675;SDS011;26359;48.750;9.314;2023-05-14T03:14:14;17.88;;;16.48;;
40675;SDS011;26359;48.750;9.314;2023-05-14T03:16:40;17.98;;;16.65;;
40675;SDS011;26359;48.750;9.314;2023-05-14T03:19:06;17.10;;;15.77;;
40675;SDS011;26359;48.750;9.314;2023-05-14T03:21:33;17.35;;;16.10;;
40675;SDS011;26359;48.750;9.314;2023-05-14T03:23:58;15.20;;;14.00;;
40675;SDS011;26359;48.750;9.314;2023-05-14T03:26:24;14.85;;;13.75;;
40675;SDS011;26359;48.750;9.314;2023-05-14T03:28:50;17.92;;;16.65;;
40675;SDS011;26359;48.750;9.314;2023-05-14T03:31:15;15.25;;;14.15;;
40675;SDS011;26359;48.750;9.314;2023-05-14T03:33:41;14.23;;;13.13;;
40675;SDS011;26359;48.750;9.314;2023-05-14T03:36:06;14.30;;;13.18;;
40675;SDS011;26359;48.750;9.314;2023-05-14T03:38:32;15.20;;;13.77;;
40675;SDS011;26359;48.750;9.314;2023-05-14T03:40:57;15.65;;;14.40;;
40675;SDS011;26359;48.750;9.314;2023-05-14T03:43:23;15.40;;;14.30;;
40675;SDS011;26359;48.750;9.314;2023-05-14T03:45:48;14.98;;;13.73;;
40675;SDS011;26359;48.750;9.314;2023-05-14T03:48:16;15.35;;;14.13;;
40675;SDS011;26359;48.750;9.314;2023-05-14T03:50:42;15.68;;;14.45;;
40675;SDS011;26359;48.750;9.314;2023-05-14T03:53:08;13.98;;;12.88;;
40675;SDS011;26359;48.750;9.314;2023-05-14T03:55:33;14.13;;;12.93;;
40675;SDS011;26359;48.750;9.314;2023-05-14T03:57:59;14.80;;;13.45;;
40675;SDS011;26359;48.750;9.314;2023-05-14T04:00:24;14.98;;;13.77;;
40675;SDS011;26359;48.750;9.314;2023-05-14T04:02:50;15.85;;;14.45;;
40675;SDS011;26359;48.750;9.314;2023-05-14T04:05:15;13.30;;;12.10;;
40675;SDS011;26359;48.750;9.314;2023-05-14T04:07:41;14.48;;;13.32;;
40675;SDS011;26359;48.750;9.314;2023-05-14T04:10:06;16.00;;;14.70;;
40675;SDS011;26359;48.750;9.314;2023-05-14T04:12:32;16.40;;;15.00;;
40675;SDS011;26359;48.750;9.314;2023-05-14T04:14:58;18.23;;;16.52;;
40675;SDS011;26359;48.750;9.314;2023-05-14T04:17:23;18.73;;;17.33;;
40675;SDS011;26359;48.750;9.314;2023-05-14T04:19:49;18.33;;;16.88;;
40675;SDS011;26359;48.750;9.314;2023-05-14T04:22:15;20.58;;;18.65;;
40675;SDS011;26359;48.750;9.314;2023-05-14T04:24:40;20.25;;;18.45;;
40675;SDS011;26359;48.750;9.314;2023-05-14T04:27:06;19.52;;;17.98;;
40675;SDS011;26359;48.750;9.314;2023-05-14T04:29:31;23.25;;;21.55;;
40675;SDS011;26359;48.750;9.314;2023-05-14T04:31:56;20.65;;;18.85;;
40675;SDS011;26359;48.750;9.314;2023-05-14T04:34:22;20.13;;;18.63;;
40675;SDS011;26359;48.750;9.314;2023-05-14T04:36:48;18.42;;;16.92;;
40675;SDS011;26359;48.750;9.314;2023-05-14T04:39:13;15.65;;;14.15;;
40675;SDS011;26359;48.750;9.314;2023-05-14T04:41:39;18.10;;;16.58;;
40675;SDS011;26359;48.750;9.314;2023-05-14T04:44:05;19.70;;;18.00;;
40675;SDS011;26359;48.750;9.314;2023-05-14T04:46:31;20.92;;;19.23;;
40675;SDS011;26359;48.750;9.314;2023-05-14T04:48:56;20.92;;;19.15;;
40675;SDS011;26359;48.750;9.314;2023-05-14T04:51:22;21.77;;;20.00;;
40675;SDS011;26359;48.750;9.314;2023-05-14T04:53:47;18.23;;;16.77;;
40675;SDS011;26359;48.750;9.314;2023-05-14T04:56:13;17.58;;;16.17;;
40675;SDS011;26359;48.750;9.314;2023-05-14T04:58:38;17.05;;;15.63;;
40675;SDS011;26359;48.750;9.314;2023-05-14T05:01:04;14.55;;;13.05;;
40675;SDS011;26359;48.750;9.314;2023-05-14T05:03:30;14.68;;;13.18;;
40675;SDS011;26359;48.750;9.314;2023-05-14T05:05:55;22.45;;;20.65;;
40675;SDS011;26359;48.750;9.314;2023-05-14T05:08:21;33.33;;;31.10;;
40675;SDS011;26359;48.750;9.314;2023-05-14T05:10:46;28.75;;;26.85;;
40675;SDS011;26359;48.750;9.314;2023-05-14T05:13:12;20.40;;;18.98;;
40675;SDS011;26359;48.750;9.314;2023-05-14T05:15:39;26.85;;;25.05;;
40675;SDS011;26359;48.750;9.314;2023-05-14T05:18:04;27.15;;;25.15;;
40675;SDS011;26359;48.750;9.314;2023-05-14T05:20:30;16.35;;;15.02;;
40675;SDS011;26359;48.750;9.314;2023-05-14T05:22:56;14.93;;;13.70;;
40675;SDS011;26359;48.750;9.314;2023-05-14T05:25:21;15.55;;;14.25;;
40675;SDS011;26359;48.750;9.314;2023-05-14T05:27:47;17.45;;;16.02;;
40675;SDS011;26359;48.750;9.314;2023-05-14T05:30:12;14.10;;;12.90;;
40675;SDS011;26359;48.750;9.314;2023-05-14T05:32:38;16.58;;;15.07;;
40675;SDS011;26359;48.750;9.314;2023-05-14T05:35:04;15.68;;;14.35;;
40675;SDS011;26359;48.750;9.314;2023-05-14T05:37:30;14.73;;;13.38;;
40675;SDS011;26359;48.750;9.314;2023-05-14T05:39:56;14.85;;;13.68;;
40675;SDS011;26359;48.750;9.314;2023-05-14T05:42:21;14.27;;;13.07;;
40675;SDS011;26359;48.750;9.314;2023-05-14T05:44:47;15.77;;;14.52;;
40675;SDS011;26359;48.750;9.314;2023-05-14T05:47:12;17.70;;;16.23;;
40675;SDS011;26359;48.750;9.314;2023-05-14T05:49:38;16.67;;;15.35;;
40675;SDS011;26359;48.750;9.314;2023-05-14T05:52:03;18.13;;;16.60;;
40675;SDS011;26359;48.750;9.314;2023-05-14T05:54:29;15.57;;;14.27;;
40675;SDS011;26359;48.750;9.314;2023-05-14T05:56:56;15.32;;;14.02;;
40675;SDS011;26359;48.750;9.314;2023-05-14T05:59:22;15.40;;;14.20;;
40675;SDS011;26359;48.750;9.314;2023-05-14T06:01:48;16.05;;;14.45;;
40675;SDS011;26359;48.750;9.314;2023-05-14T06:04:14;16.42;;;15.10;;
40675;SDS011;26359;48.750;9.314;2023-05-14T06:06:40;16.88;;;15.57;;
40675;SDS011;26359;48.750;9.314;2023-05-14T06:09:05;17.38;;;15.77;;
40675;SDS011;26359;48.750;9.314;2023-05-14T06:11:32;16.95;;;15.55;;
40675;SDS011;26359;48.750;9.314;2023-05-14T06:13:58;15.70;;;14.27;;
40675;SDS011;26359;48.750;9.314;2023-05-14T06:16:24;17.55;;;16.05;;
40675;SDS011;26359;48.750;9.314;2023-05-14T06:18:49;21.85;;;20.25;;
40675;SDS011;26359;48.750;9.314;2023-05-14T06:21:16;15.43;;;14.10;;
40675;SDS011;26359;48.750;9.314;2023-05-14T06:23:42;14.27;;;12.98;;
40675;SDS011;26359;48.750;9.314;2023-05-14T06:26:08;15.82;;;14.38;;
40675;SDS011;26359;48.750;9.314;2023-05-14T06:28:33;15.15;;;13.80;;
40675;SDS011;26359;48.750;9.314;2023-05-14T06:30:59;14.07;;;12.93;;
40675;SDS011;26359;48.750;9.314;2023-05-14T06:33:24;15.65;;;14.15;;
40675;SDS011;26359;48.750;9.314;2023-05-14T06:35:54;22.55;;;20.70;;
40675;SDS011;26359;48.750;9.314;2023-05-14T06:38:28;24.42;;;22.42;;
40675;SDS011;26359;48.750;9.314;2023-05-14T06:40:53;21.05;;;19.23;;
40675;SDS011;26359;48.750;9.314;2023-05-14T06:43:19;18.58;;;16.95;;
40675;SDS011;26359;48.750;9.314;2023-05-14T06:45:48;24.63;;;22.77;;
40675;SDS011;26359;48.750;9.314;2023-05-14T06:48:14;26.25;;;24.27;;
40675;SDS011;26359;48.750;9.314;2023-05-14T06:50:42;33.65;;;31.38;;
40675;SDS011;26359;48.750;9.314;2023-05-14T06:53:08;19.73;;;18.08;;
40675;SDS011;26359;48.750;9.314;2023-05-14T06:55:34;16.88;;;15.40;;
40675;SDS011;26359;48.750;9.314;2023-05-14T06:57:59;16.30;;;14.80;;
40675;SDS011;26359;48.750;9.314;2023-05-14T07:00:25;16.13;;;14.80;;
40675;SDS011;26359;48.750;9.314;2023-05-14T07:02:51;17.05;;;15.50;;
40675;SDS011;26359;48.750;9.314;2023-05-14T07:05:17;25.05;;;23.15;;
40675;SDS011;26359;48.750;9.314;2023-05-14T07:07:43;31.88;;;29.58;;
40675;SDS011;26359;48.750;9.314;2023-05-14T07:10:09;32.30;;;30.00;;
40675;SDS011;26359;48.750;9.314;2023-05-14T07:12:34;26.38;;;24.38;;
40675;SDS011;26359;48.750;9.314;2023-05-14T07:15:00;20.45;;;18.75;;
40675;SDS011;26359;48.750;9.314;2023-05-14T07:17:25;20.70;;;18.88;;
40675;SDS011;26359;48.750;9.314;2023-05-14T07:19:51;28.95;;;26.45;;
40675;SDS011;26359;48.750;9.314;2023-05-14T07:22:16;27.30;;;24.92;;
40675;SDS011;26359;48.750;9.314;2023-05-14T07:24:42;24.73;;;22.83;;
40675;SDS011;26359;48.750;9.314;2023-05-14T07:27:07;25.60;;;23.70;;
40675;SDS011;26359;48.750;9.314;2023-05-14T07:29:33;25.77;;;23.77;;
40675;SDS011;26359;48.750;9.314;2023-05-14T07:31:59;22.55;;;20.73;;
40675;SDS011;26359;48.750;9.314;2023-05-14T07:34:25;18.42;;;16.90;;
40675;SDS011;26359;48.750;9.314;2023-05-14T07:36:51;17.38;;;15.88;;
40675;SDS011;26359;48.750;9.314;2023-05-14T07:39:17;17.75;;;16.15;;
40675;SDS011;26359;48.750;9.314;2023-05-14T07:41:42;19.20;;;17.63;;
40675;SDS011;26359;48.750;9.314;2023-05-14T07:44:08;26.15;;;24.08;;
40675;SDS011;26359;48.750;9.314;2023-05-14T07:46:34;19.65;;;17.85;;
40675;SDS011;26359;48.750;9.314;2023-05-14T07:49:00;18.48;;;16.67;;
40675;SDS011;26359;48.750;9.314;2023-05-14T07:51:26;18.67;;;17.02;;
40675;SDS011;26359;48.750;9.314;2023-05-14T07:53:52;19.60;;;18.13;;
40675;SDS011;26359;48.750;9.314;2023-05-14T07:56:19;21.55;;;19.50;;
40675;SDS011;26359;48.750;9.314;2023-05-14T07:58:48;20.88;;;19.15;;
40675;SDS011;26359;48.750;9.314;2023-05-14T08:01:14;19.00;;;17.40;;
40675;SDS011;26359;48.750;9.314;2023-05-14T08:03:40;18.98;;;17.38;;
40675;SDS011;26359;48.750;9.314;2023-05-14T08:06:06;17.73;;;16.05;;
40675;SDS011;26359;48.750;9.314;2023-05-14T08:08:31;18.20;;;16.60;;
40675;SDS011;26359;48.750;9.314;2023-05-14T08:10:57;17.83;;;16.33;;
40675;SDS011;26359;48.750;9.314;2023-05-14T08:13:22;19.30;;;17.73;;
40675;SDS011;26359;48.750;9.314;2023-05-14T08:15:48;20.38;;;18.77;;
40675;SDS011;26359;48.750;9.314;2023-05-14T08:18:13;18.23;;;16.40;;
40675;SDS011;26359;48.750;9.314;2023-05-14T08:20:39;26.75;;;24.80;;
40675;SDS011;26359;48.750;9.314;2023-05-14T08:23:04;17.40;;;15.82;;
40675;SDS011;26359;48.750;9.314;2023-05-14T08:25:31;22.50;;;20.60;;
40675;SDS011;26359;48.750;9.314;2023-05-14T08:27:57;18.40;;;16.70;;
40675;SDS011;26359;48.750;9.314;2023-05-14T08:30:23;23.05;;;21.33;;
40675;SDS011;26359;48.750;9.314;2023-05-14T08:32:49;17.77;;;16.33;;
40675;SDS011;26359;48.750;9.314;2023-05-14T08:35:15;20.25;;;18.55;;
40675;SDS011;26359;48.750;9.314;2023-05-14T08:37:41;20.38;;;18.60;;
40675;SDS011;26359;48.750;9.314;2023-05-14T08:40:07;22.98;;;21.23;;
40675;SDS011;26359;48.750;9.314;2023-05-14T08:42:34;22.35;;;20.55;;
40675;SDS011;26359;48.750;9.314;2023-05-14T08:45:02;20.63;;;18.65;;
40675;SDS011;26359;48.750;9.314;2023-05-14T08:47:29;20.45;;;18.60;;
40675;SDS011;26359;48.750;9.314;2023-05-14T08:50:05;20.45;;;18.80;;
40675;SDS011;26359;48.750;9.314;2023-05-14T08:52:32;19.10;;;17.60;;
40675;SDS011;26359;48.750;9.314;2023-05-14T08:54:59;20.17;;;18.45;;
40675;SDS011;26359;48.750;9.314;2023-05-14T08:57:26;22.63;;;20.80;;
40675;SDS011;26359;48.750;9.314;2023-05-14T08:59:54;20.88;;;19.13;;
40675;SDS011;26359;48.750;9.314;2023-05-14T09:02:21;30.02;;;27.80;;
40675;SDS011;26359;48.750;9.314;2023-05-14T09:04:53;25.75;;;23.77;;
40675;SDS011;26359;48.750;9.314;2023-05-14T09:07:20;28.20;;;25.67;;
40675;SDS011;26359;48.750;9.314;2023-05-14T09:09:46;22.08;;;20.27;;
40675;SDS011;26359;48.750;9.314;2023-05-14T09:12:12;25.45;;;23.45;;
40675;SDS011;26359;48.750;9.314;2023-05-14T09:14:38;38.13;;;35.40;;
40675;SDS011;26359;48.750;9.314;2023-05-14T09:17:03;26.05;;;24.05;;
40675;SDS011;26359;48.750;9.314;2023-05-14T09:19:29;36.63;;;34.13;;
40675;SDS011;26359;48.750;9.314;2023-05-14T09:21:55;22.13;;;20.42;;
40675;SDS011;26359;48.750;9.314;2023-05-14T09:24:23;27.25;;;25.20;;
40675;SDS011;26359;48.750;9.314;2023-05-14T09:26:54;24.80;;;23.02;;
40675;SDS011;26359;48.750;9.314;2023-05-14T09:29:23;16.67;;;15.40;;
40675;SDS011;26359;48.750;9.314;2023-05-14T09:31:49;13.80;;;12.57;;
40675;SDS011;26359;48.750;9.314;2023-05-14T09:34:22;14.20;;;12.93;;
40675;SDS011;26359;48.750;9.314;2023-05-14T09:37:01;15.48;;;14.18;;
40675;SDS011;26359;48.750;9.314;2023-05-14T09:39:31;13.00;;;11.90;;
40675;SDS011;26359;48.750;9.314;2023-05-14T09:41:57;13.98;;;12.82;;
40675;SDS011;26359;48.750;9.314;2023-05-14T09:44:23;15.68;;;14.32;;
40675;SDS011;26359;48.750;9.314;2023-05-14T09:46:50;23.17;;;21.52;;
40675;SDS011;26359;48.750;9.314;2023-05-14T09:49:16;30.52;;;28.42;;
40675;SDS011;26359;48.750;9.314;2023-05-14T09:51:42;21.65;;;20.02;;
40675;SDS011;26359;48.750;9.314;2023-05-14T09:54:08;21.77;;;20.15;;
40675;SDS011;26359;48.750;9.314;2023-05-14T09:56:34;26.90;;;25.02;;
40675;SDS011;26359;48.750;9.314;2023-05-14T09:59:01;19.20;;;17.60;;
40675;SDS011;26359;48.750;9.314;2023-05-14T10:01:30;20.33;;;18.73;;
40675;SDS011;26359;48.750;9.314;2023-05-14T10:03:56;15.30;;;13.90;;
40675;SDS011;26359;48.750;9.314;2023-05-14T10:06:24;21.02;;;19.52;;
40675;SDS011;26359;48.750;9.314;2023-05-14T10:08:52;22.10;;;17.25;;
40675;SDS011;26359;48.750;9.314;2023-05-14T10:11:21;15.98;;;14.38;;
40675;SDS011;26359;48.750;9.314;2023-05-14T10:19:04;18.90;;;17.48;;
40675;SDS011;26359;48.750;9.314;2023-05-14T10:21:38;13.05;;;12.05;;
40675;SDS011;26359;48.750;9.314;2023-05-14T10:24:05;14.70;;;13.50;;
40675;SDS011;26359;48.750;9.314;2023-05-14T10:26:33;26.38;;;24.50;;
40675;SDS011;26359;48.750;9.314;2023-05-14T10:29:03;16.13;;;14.75;;
40675;SDS011;26359;48.750;9.314;2023-05-14T10:31:45;13.02;;;11.85;;
40675;SDS011;26359;48.750;9.314;2023-05-14T10:34:32;15.63;;;14.32;;
40675;SDS011;26359;48.750;9.314;2023-05-14T10:37:21;19.63;;;17.95;;
40675;SDS011;26359;48.750;9.314;2023-05-14T10:45:04;17.33;;;16.02;;
40675;SDS011;26359;48.750;9.314;2023-05-14T10:47:43;21.02;;;19.30;;
40675;SDS011;26359;48.750;9.314;2023-05-14T10:50:11;34.75;;;32.40;;
40675;SDS011;26359;48.750;9.314;2023-05-14T10:52:41;15.65;;;14.43;;
40675;SDS011;26359;48.750;9.314;2023-05-14T10:55:08;17.15;;;15.90;;
40675;SDS011;26359;48.750;9.314;2023-05-14T10:57:38;29.52;;;27.15;;
40675;SDS011;26359;48.750;9.314;2023-05-14T11:00:06;19.30;;;17.98;;
40675;SDS011;26359;48.750;9.314;2023-05-14T11:02:36;13.43;;;12.43;;
40675;SDS011;26359;48.750;9.314;2023-05-14T11:05:04;12.48;;;11.48;;
40675;SDS011;26359;48.750;9.314;2023-05-14T11:12:32;15.05;;;13.70;;
40675;SDS011;26359;48.750;9.314;2023-05-14T11:15:00;11.10;;;10.00;;
40675;SDS011;26359;48.750;9.314;2023-05-14T11:17:28;17.42;;;16.00;;
40675;SDS011;26359;48.750;9.314;2023-05-14T11:19:55;12.80;;;11.82;;
40675;SDS011;26359;48.750;9.314;2023-05-14T11:22:21;10.88;;;10.05;;
40675;SDS011;26359;48.750;9.314;2023-05-14T11:24:47;12.30;;;11.40;;
40675;SDS011;26359;48.750;9.314;2023-05-14T11:27:13;12.25;;;11.25;;
40675;SDS011;26359;48.750;9.314;2023-05-14T11:29:42;15.63;;;14.43;;
40675;SDS011;26359;48.750;9.314;2023-05-14T11:32:12;14.65;;;13.55;;
40675;SDS011;26359;48.750;9.314;2023-05-14T11:34:39;16.05;;;14.93;;
40675;SDS011;26359;48.750;9.314;2023-05-14T11:37:05;15.40;;;14.30;;
40675;SDS011;26359;48.750;9.314;2023-05-14T11:39:32;14.73;;;13.60;;
40675;SDS011;26359;48.750;9.314;2023-05-14T11:41:58;13.75;;;12.77;;
40675;SDS011;26359;48.750;9.314;2023-05-14T11:44:27;12.18;;;11.27;;
40675;SDS011;26359;48.750;9.314;2023-05-14T11:46:56;13.25;;;12.25;;
40675;SDS011;26359;48.750;9.314;2023-05-14T11:49:25;22.27;;;20.80;;
40675;SDS011;26359;48.750;9.314;2023-05-14T11:51:59;19.65;;;18.35;;
40675;SDS011;26359;48.750;9.314;2023-05-14T11:54:26;15.18;;;14.13;;
40675;SDS011;26359;48.750;9.314;2023-05-14T11:56:56;16.58;;;15.30;;
40675;SDS011;26359;48.750;9.314;2023-05-14T11:59:23;12.95;;;11.90;;
40675;SDS011;26359;48.750;9.314;2023-05-14T12:01:49;16.13;;;14.93;;
40675;SDS011;26359;48.750;9.314;2023-05-14T12:04:16;15.25;;;14.02;;
40675;SDS011;26359;48.750;9.314;2023-05-14T12:06:46;11.05;;;10.25;;
40675;SDS011;26359;48.750;9.314;2023-05-14T12:09:12;17.15;;;16.00;;
40675;SDS011;26359;48.750;9.314;2023-05-14T12:11:40;10.38;;;9.57;;
40675;SDS011;26359;48.750;9.314;2023-05-14T12:14:15;9.75;;;8.95;;
40675;SDS011;26359;48.750;9.314;2023-05-14T12:16:41;10.68;;;9.88;;
40675;SDS011;26359;48.750;9.314;2023-05-14T12:19:09;11.00;;;10.23;;
40675;SDS011;26359;48.750;9.314;2023-05-14T12:21:37;9.43;;;8.73;;
40675;SDS011;26359;48.750;9.314;2023-05-14T12:24:03;8.77;;;8.07;;
40675;SDS011;26359;48.750;9.314;2023-05-14T12:26:32;9.27;;;8.68;;
40675;SDS011;26359;48.750;9.314;2023-05-14T12:28:59;8.43;;;7.72;;
40675;SDS011;26359;48.750;9.314;2023-05-14T12:31:29;8.18;;;7.50;;
40675;SDS011;26359;48.750;9.314;2023-05-14T12:33:55;8.45;;;7.85;;
40675;SDS011;26359;48.750;9.314;2023-05-14T12:36:21;8.35;;;7.75;;
40675;SDS011;26359;48.750;9.314;2023-05-14T12:38:47;13.18;;;12.15;;
40675;SDS011;26359;48.750;9.314;2023-05-14T12:41:13;10.88;;;10.18;;
40675;SDS011;26359;48.750;9.314;2023-05-14T12:43:41;11.32;;;10.63;;
40675;SDS011;26359;48.750;9.314;2023-05-14T12:46:07;11.73;;;11.02;;
40675;SDS011;26359;48.750;9.314;2023-05-14T12:48:33;12.40;;;11.50;;
40675;SDS011;26359;48.750;9.314;2023-05-14T12:50:58;10.32;;;9.60;;
40675;SDS011;26359;48.750;9.314;2023-05-14T12:53:24;14.57;;;13.75;;
40675;SDS011;26359;48.750;9.314;2023-05-14T12:55:49;15.88;;;14.88;;
40675;SDS011;26359;48.750;9.314;2023-05-14T12:58:15;17.60;;;16.30;;
40675;SDS011;26359;48.750;9.314;2023-05-14T13:00:40;8.93;;;8.27;;
40675;SDS011;26359;48.750;9.314;2023-05-14T13:03:06;9.68;;;8.93;;
40675;SDS011;26359;48.750;9.314;2023-05-14T13:05:31;8.65;;;8.05;;
40675;SDS011;26359;48.750;9.314;2023-05-14T13:07:57;9.05;;;8.45;;
40675;SDS011;26359;48.750;9.314;2023-05-14T13:10:24;9.57;;;8.88;;
40675;SDS011;26359;48.750;9.314;2023-05-14T13:12:50;9.38;;;8.77;;
40675;SDS011;26359;48.750;9.314;2023-05-14T13:15:16;11.15;;;10.40;;
40675;SDS011;26359;48.750;9.314;2023-05-14T13:17:42;9.45;;;8.85;;
40675;SDS011;26359;48.750;9.314;2023-05-14T13:20:08;9.85;;;9.15;;
40675;SDS011;26359;48.750;9.314;2023-05-14T13:22:34;16.83;;;15.85;;
40675;SDS011;26359;48.750;9.314;2023-05-14T13:24:59;7.95;;;7.35;;
40675;SDS011;26359;48.750;9.314;2023-05-14T13:27:25;23.67;;;22.35;;
40675;SDS011;26359;48.750;9.314;2023-05-14T13:29:50;8.00;;;7.22;;
40675;SDS011;26359;48.750;9.314;2023-05-14T13:32:16;9.88;;;9.25;;
40675;SDS011;26359;48.750;9.314;2023-05-14T13:34:41;23.40;;;22.00;;
40675;SDS011;26359;48.750;9.314;2023-05-14T13:37:08;21.75;;;20.48;;
40675;SDS011;26359;48.750;9.314;2023-05-14T13:39:33;9.50;;;8.90;;
40675;SDS011;26359;48.750;9.314;2023-05-14T13:41:59;8.02;;;7.53;;
40675;SDS011;26359;48.750;9.314;2023-05-14T13:44:25;24.45;;;22.98;;
40675;SDS011;26359;48.750;9.314;2023-05-14T13:46:51;22.67;;;21.40;;
40675;SDS011;26359;48.750;9.314;2023-05-14T13:49:17;18.95;;;17.77;;
40675;SDS011;26359;48.750;9.314;2023-05-14T13:51:42;30.67;;;29.02;;
40675;SDS011;26359;48.750;9.314;2023-05-14T13:54:08;23.13;;;21.73;;
40675;SDS011;26359;48.750;9.314;2023-05-14T13:56:33;21.63;;;20.27;;
40675;SDS011;26359;48.750;9.314;2023-05-14T13:58:59;27.75;;;26.17;;
40675;SDS011;26359;48.750;9.314;2023-05-14T14:01:24;13.45;;;12.55;;
40675;SDS011;26359;48.750;9.314;2023-05-14T14:03:50;14.02;;;13.23;;
40675;SDS011;26359;48.750;9.314;2023-05-14T14:06:15;11.65;;;10.85;;
40675;SDS011;26359;48.750;9.314;2023-05-14T14:08:41;9.70;;;9.10;;
40675;SDS011;26359;48.750;9.314;2023-05-14T14:11:06;9.55;;;8.77;;
40675;SDS011;26359;48.750;9.314;2023-05-14T14:13:32;8.45;;;7.88;;
40675;SDS011;26359;48.750;9.314;2023-05-14T14:15:57;7.97;;;7.40;;
40675;SDS011;26359;48.750;9.314;2023-05-14T14:18:23;7.40;;;6.90;;
40675;SDS011;26359;48.750;9.314;2023-05-14T14:20:49;27.30;;;25.90;;
40675;SDS011;26359;48.750;9.314;2023-05-14T14:23:14;26.52;;;24.98;;
40675;SDS011;26359;48.750;9.314;2023-05-14T14:25:40;15.98;;;15.07;;
40675;SDS011;26359;48.750;9.314;2023-05-14T14:28:05;8.85;;;8.27;;
40675;SDS011;26359;48.750;9.314;2023-05-14T14:30:31;9.55;;;8.95;;
40675;SDS011;26359;48.750;9.314;2023-05-14T14:32:57;10.20;;;9.60;;
40675;SDS011;26359;48.750;9.314;2023-05-14T14:35:25;11.60;;;10.90;;
40675;SDS011;26359;48.750;9.314;2023-05-14T14:37:50;7.30;;;6.80;;
40675;SDS011;26359;48.750;9.314;2023-05-14T14:40:17;13.48;;;12.68;;
40675;SDS011;26359;48.750;9.314;2023-05-14T14:42:43;11.98;;;11.18;;